createdAt,value
2023-05-14T00:00:18.290Z,69.9875
2023-05-14T00:01:20.010Z,69.9944
2023-05-14T00:02:21.636Z,70.1528
2023-05-14T00:03:23.361Z,70.3254
2023-05-14T00:04:24.895Z,70.2626
2023-05-14T00:05:26.563Z,70.0645
2023-05-14T00:06:28.180Z,70.0695
2023-05-14T00:07:30.273Z,70.1512
2023-05-14T00:08:31.460Z,70.1226
2023-05-14T00:09:33.158Z,70.0546
2023-05-14T00:10:34.766Z,70.1373
2023-05-14T00:11:36.445Z,70.3009
2023-05-14T00:12:38.070Z,70.4104
2023-05-14T00:13:39.701Z,70.4936
2023-05-14T00:14:41.366Z,70.4210
2023-05-14T00:15:43.017Z,70.2587
2023-05-14T00:16:44.629Z,70.2455
2023-05-14T00:17:46.380Z,70.2439
2023-05-14T00:18:47.916Z,70.2921
2023-05-14T00:19:49.571Z,70.3528
2023-05-14T00:20:51.728Z,70.4431
2023-05-14T00:21:52.832Z,70.5735
2023-05-14T00:22:54.539Z,70.5731
2023-05-14T00:23:56.159Z,70.4119
2023-05-14T00:24:57.822Z,70.3821
2023-05-14T00:25:59.426Z,70.3850
2023-05-14T00:27:01.079Z,70.2937
2023-05-14T00:28:02.744Z,70.3556
2023-05-14T00:29:04.331Z,70.4266
2023-05-14T00:30:06.113Z,70.3640
2023-05-14T00:31:07.697Z,70.4193
2023-05-14T00:32:09.258Z,70.3643
2023-05-14T00:33:10.998Z,70.2851
2023-05-14T00:34:12.568Z,70.3272
2023-05-14T00:35:14.251Z,70.4610
2023-05-14T00:36:15.847Z,70.5809
2023-05-14T00:37:17.536Z,70.5233
2023-05-14T00:38:19.278Z,70.4605
2023-05-14T00:39:20.754Z,70.3862
2023-05-14T00:40:22.871Z,70.3600
2023-05-14T00:41:24.065Z,70.3237
2023-05-14T00:42:25.724Z,70.3647
2023-05-14T00:43:27.386Z,70.4565
2023-05-14T00:44:29.089Z,70.5332
2023-05-14T00:45:30.637Z,70.6043
2023-05-14T00:46:32.324Z,70.6666
2023-05-14T00:47:34.030Z,70.6693
2023-05-14T00:48:35.623Z,70.6471
2023-05-14T00:49:37.248Z,70.6673
2023-05-14T00:50:38.970Z,70.5538
2023-05-14T00:51:40.524Z,70.5539
2023-05-14T00:52:42.255Z,70.5869
2023-05-14T00:53:43.859Z,70.6500
2023-05-14T00:54:45.556Z,70.7098
2023-05-14T00:55:47.027Z,70.6062
2023-05-14T00:56:48.754Z,70.4198
2023-05-14T00:57:50.317Z,70.3934
2023-05-14T00:58:52.996Z,70.4703
2023-05-14T00:59:53.753Z,70.5498
2023-05-14T01:00:55.291Z,70.6218
2023-05-14T01:01:56.922Z,70.6701
2023-05-14T01:02:58.701Z,70.5546
2023-05-14T01:04:00.290Z,70.5650
2023-05-14T01:05:02.319Z,70.6070
2023-05-14T01:06:03.495Z,70.5514
2023-05-14T01:07:05.139Z,70.6808
2023-05-14T01:08:06.770Z,70.7167
2023-05-14T01:09:08.431Z,70.6903
2023-05-14T01:10:11.044Z,70.6635
2023-05-14T01:11:11.753Z,70.6377
2023-05-14T01:12:13.355Z,70.6427
2023-05-14T01:13:14.968Z,70.7696
2023-05-14T01:14:17.108Z,70.8577
2023-05-14T01:15:18.613Z,70.8670
2023-05-14T01:16:20.774Z,70.8640
2023-05-14T01:17:21.534Z,70.7277
2023-05-14T01:18:23.218Z,70.5731
2023-05-14T01:19:24.915Z,70.6224
2023-05-14T01:20:26.639Z,70.7816
2023-05-14T01:21:28.201Z,70.8399
2023-05-14T01:22:29.919Z,70.8389
2023-05-14T01:23:31.398Z,70.8468
2023-05-14T01:24:33.085Z,70.8785
2023-05-14T01:25:34.789Z,70.7620
2023-05-14T01:26:36.472Z,70.7313
2023-05-14T01:27:38.704Z,70.7475
2023-05-14T01:28:39.794Z,70.8751
2023-05-14T01:29:41.317Z,71.0510
2023-05-14T01:30:43.355Z,71.0335
2023-05-14T01:31:44.651Z,70.9022
2023-05-14T01:32:46.322Z,70.8140
2023-05-14T01:33:47.889Z,70.8162
2023-05-14T01:34:49.542Z,70.9500
2023-05-14T01:35:51.251Z,71.0828
2023-05-14T01:36:53.263Z,71.0590
2023-05-14T01:37:54.502Z,70.9057
2023-05-14T01:38:56.109Z,70.7552
2023-05-14T01:39:57.798Z,70.7223
2023-05-14T01:40:59.426Z,70.8400
2023-05-14T01:42:01.318Z,70.8813
2023-05-14T01:43:02.759Z,70.8496
2023-05-14T01:44:04.485Z,70.8765
2023-05-14T01:45:05.973Z,70.8630
2023-05-14T01:46:07.669Z,70.8137
2023-05-14T01:47:09.800Z,70.7252
2023-05-14T01:48:11.140Z,70.6322
2023-05-14T01:49:12.542Z,70.6399
2023-05-14T01:50:14.241Z,70.8779
2023-05-14T01:51:15.861Z,71.0489
2023-05-14T01:52:17.814Z,71.0294
2023-05-14T01:53:19.216Z,70.8298
2023-05-14T01:54:20.824Z,70.7682
2023-05-14T01:55:22.451Z,70.7172
2023-05-14T01:56:24.119Z,70.7839
2023-05-14T01:57:25.796Z,70.8018
2023-05-14T01:58:27.386Z,70.8405
2023-05-14T01:59:29.104Z,70.8608
2023-05-14T02:00:30.613Z,70.8763
2023-05-14T02:01:33.325Z,70.9425
2023-05-14T02:02:33.969Z,70.9491
2023-05-14T02:03:35.576Z,70.9833
2023-05-14T02:04:37.203Z,71.0938
2023-05-14T02:05:38.841Z,70.9975
2023-05-14T02:06:40.710Z,70.8889
2023-05-14T02:07:42.195Z,70.7487
2023-05-14T02:08:43.752Z,70.6754
2023-05-14T02:09:45.457Z,70.5957
2023-05-14T02:10:47.048Z,70.6166
2023-05-14T02:11:48.795Z,70.7631
2023-05-14T02:12:50.386Z,70.8910
2023-05-14T02:13:52.045Z,70.8322
2023-05-14T02:14:53.639Z,70.7463
2023-05-14T02:15:55.350Z,70.6527
2023-05-14T02:16:56.949Z,70.5590
2023-05-14T02:17:58.836Z,70.5053
2023-05-14T02:19:01.281Z,70.5349
2023-05-14T02:20:01.878Z,70.5681
2023-05-14T02:21:03.549Z,70.6257
2023-05-14T02:22:05.164Z,70.7299
2023-05-14T02:23:07.761Z,70.8083
2023-05-14T02:24:08.498Z,70.8622
2023-05-14T02:25:10.080Z,70.8084
2023-05-14T02:26:11.708Z,70.7288
2023-05-14T02:27:13.395Z,70.6556
2023-05-14T02:28:15.747Z,70.5739
2023-05-14T02:29:16.678Z,70.6048
2023-05-14T02:30:18.296Z,70.6383
2023-05-14T02:31:20.068Z,70.6941
2023-05-14T02:32:21.603Z,70.7021
2023-05-14T02:33:23.375Z,70.6429
2023-05-14T02:34:25.051Z,70.5461
2023-05-14T02:35:26.542Z,70.4843
2023-05-14T02:36:28.245Z,70.6054
2023-05-14T02:37:29.824Z,70.6708
2023-05-14T02:38:31.491Z,70.5948
2023-05-14T02:39:33.077Z,70.5758
2023-05-14T02:40:34.773Z,70.5586
2023-05-14T02:41:36.346Z,70.6527
2023-05-14T02:42:38.221Z,70.7295
2023-05-14T02:43:39.641Z,70.7879
2023-05-14T02:44:41.334Z,70.7172
2023-05-14T02:45:42.968Z,70.6812
2023-05-14T02:46:44.623Z,70.6082
2023-05-14T02:47:46.384Z,70.5150
2023-05-14T02:48:48.739Z,70.3771
2023-05-14T02:49:49.526Z,70.3638
2023-05-14T02:50:51.222Z,70.4499
2023-05-14T02:51:52.799Z,70.6399
2023-05-14T02:52:54.703Z,71.0139
2023-05-14T02:53:57.196Z,70.1275
2023-05-14T02:54:58.866Z,69.0217
2023-05-14T02:55:59.622Z,67.4240
2023-05-14T02:57:01.188Z,65.5457
2023-05-14T02:58:02.863Z,64.5974
2023-05-14T02:59:04.579Z,64.3038
2023-05-14T03:00:06.151Z,64.3799
2023-05-14T03:01:07.867Z,64.3523
2023-05-14T03:02:09.407Z,64.3841
2023-05-14T03:03:11.118Z,64.6173
2023-05-14T03:04:12.688Z,64.7814
2023-05-14T03:05:14.314Z,64.9583
2023-05-14T03:06:15.995Z,65.0631
2023-05-14T03:07:17.643Z,64.9985
2023-05-14T03:08:19.329Z,64.9477
2023-05-14T03:09:20.900Z,65.0243
2023-05-14T03:10:22.686Z,64.9455
2023-05-14T03:11:24.340Z,64.9246
2023-05-14T03:12:25.821Z,64.9715
2023-05-14T03:13:27.507Z,64.9880
2023-05-14T03:14:29.146Z,64.9128
2023-05-14T03:15:30.791Z,64.7365
2023-05-14T03:16:33.379Z,64.5660
2023-05-14T03:17:34.088Z,64.4646
2023-05-14T03:18:35.836Z,64.4672
2023-05-14T03:19:37.370Z,64.6084
2023-05-14T03:20:38.932Z,64.6035
2023-05-14T03:21:40.630Z,64.6135
2023-05-14T03:22:42.235Z,64.5876
2023-05-14T03:23:43.969Z,64.5861
2023-05-14T03:24:45.538Z,64.5257
2023-05-14T03:25:47.562Z,64.4372
2023-05-14T03:26:49.208Z,64.4948
2023-05-14T03:27:50.593Z,64.5374
2023-05-14T03:28:52.100Z,64.4407
2023-05-14T03:29:53.746Z,64.0720
2023-05-14T03:30:55.745Z,63.8665
2023-05-14T03:31:57.354Z,63.7306
2023-05-14T03:32:58.990Z,63.9429
2023-05-14T03:34:00.409Z,64.2170
2023-05-14T03:35:02.017Z,64.2171
2023-05-14T03:36:03.686Z,64.0637
2023-05-14T03:37:05.266Z,63.9570
2023-05-14T03:38:07.008Z,63.8132
2023-05-14T03:39:08.648Z,63.7799
2023-05-14T03:40:10.267Z,63.9964
2023-05-14T03:41:11.864Z,64.2025
2023-05-14T03:42:13.568Z,64.2498
2023-05-14T03:43:15.160Z,64.3055
2023-05-14T03:44:16.854Z,64.1661
2023-05-14T03:45:18.558Z,63.9833
2023-05-14T03:46:20.129Z,64.0609
2023-05-14T03:47:22.064Z,64.0945
2023-05-14T03:48:23.841Z,64.4402
2023-05-14T03:49:25.067Z,64.7280
2023-05-14T03:50:26.714Z,64.8116
2023-05-14T03:51:28.304Z,64.5604
2023-05-14T03:52:30.057Z,64.6346
2023-05-14T03:53:31.659Z,64.6366
2023-05-14T03:54:33.271Z,64.6146
2023-05-14T03:55:34.862Z,64.7022
2023-05-14T03:56:36.612Z,65.0287
2023-05-14T03:57:38.198Z,65.2982
2023-05-14T03:58:39.866Z,65.1973
2023-05-14T03:59:41.465Z,64.9531
2023-05-14T04:00:43.094Z,64.9172
2023-05-14T04:01:44.923Z,64.8764
2023-05-14T04:02:46.562Z,64.9219
2023-05-14T04:03:48.580Z,64.8070
2023-05-14T04:04:49.814Z,64.8881
2023-05-14T04:05:51.878Z,64.9055
2023-05-14T04:06:53.922Z,64.9371
2023-05-14T04:07:54.593Z,64.9811
2023-05-14T04:08:56.361Z,65.0326
2023-05-14T04:09:57.921Z,65.1371
2023-05-14T04:10:59.524Z,65.2103
2023-05-14T04:12:01.186Z,65.0458
2023-05-14T04:13:02.837Z,64.9812
2023-05-14T04:14:05.367Z,65.0467
2023-05-14T04:15:06.149Z,65.1906
2023-05-14T04:16:07.835Z,65.3486
2023-05-14T04:17:09.447Z,65.2778
2023-05-14T04:18:11.029Z,65.1637
2023-05-14T04:19:12.787Z,65.2386
2023-05-14T04:20:14.348Z,65.2717
2023-05-14T04:21:16.039Z,65.2171
2023-05-14T04:22:17.612Z,65.1631
2023-05-14T04:23:19.233Z,65.0949
2023-05-14T04:24:20.908Z,65.0013
2023-05-14T04:25:22.664Z,64.9853
2023-05-14T04:26:24.165Z,64.9846
2023-05-14T04:27:25.892Z,65.0129
2023-05-14T04:28:27.516Z,65.1364
2023-05-14T04:29:29.176Z,65.0243
2023-05-14T04:30:30.889Z,64.9825
2023-05-14T04:31:33.440Z,64.9723
2023-05-14T04:32:34.088Z,64.7894
2023-05-14T04:33:35.722Z,64.5871
2023-05-14T04:34:37.342Z,64.7041
2023-05-14T04:35:39.023Z,64.7542
2023-05-14T04:36:40.639Z,64.9427
2023-05-14T04:37:42.368Z,64.7926
2023-05-14T04:38:43.994Z,64.1951
2023-05-14T04:39:45.586Z,64.3328
2023-05-14T04:40:47.227Z,64.4602
2023-05-14T04:41:48.876Z,64.4987
2023-05-14T04:42:50.580Z,64.4669
2023-05-14T04:43:52.140Z,64.5029
2023-05-14T04:44:53.811Z,64.6527
2023-05-14T04:45:55.432Z,64.4091
2023-05-14T04:46:57.136Z,64.2213
2023-05-14T04:47:58.768Z,64.2645
2023-05-14T04:49:00.361Z,64.4644
2023-05-14T04:50:02.137Z,64.6815
2023-05-14T04:51:05.634Z,64.6603
2023-05-14T04:52:05.318Z,64.6055
2023-05-14T04:53:06.985Z,64.3061
2023-05-14T04:54:08.597Z,63.7830
2023-05-14T04:55:10.287Z,63.2134
2023-05-14T04:56:11.965Z,62.5509
2023-05-14T04:57:13.597Z,61.6970
2023-05-14T04:58:15.174Z,61.1045
2023-05-14T04:59:16.904Z,60.5613
2023-05-14T05:00:19.394Z,60.1099
2023-05-14T05:01:20.177Z,59.4664
2023-05-14T05:02:21.798Z,58.5119
2023-05-14T05:03:23.408Z,57.6011
2023-05-14T05:04:25.082Z,57.2789
2023-05-14T05:05:26.698Z,57.1271
2023-05-14T05:06:28.317Z,56.9227
2023-05-14T05:07:30.073Z,57.1571
2023-05-14T05:08:31.700Z,56.8085
2023-05-14T05:09:33.275Z,56.1931
2023-05-14T05:10:34.936Z,55.6029
2023-05-14T05:11:36.619Z,55.9086
2023-05-14T05:12:39.180Z,56.6031
2023-05-14T05:13:39.894Z,56.5494
2023-05-14T05:14:41.436Z,56.0391
2023-05-14T05:15:43.535Z,55.4506
2023-05-14T05:16:45.655Z,55.0828
2023-05-14T05:17:46.436Z,55.5480
2023-05-14T05:18:48.060Z,56.1688
2023-05-14T05:19:49.660Z,56.0170
2023-05-14T05:20:51.279Z,55.6911
2023-05-14T05:21:52.927Z,55.2278
2023-05-14T05:22:54.615Z,55.0501
2023-05-14T05:23:56.272Z,55.6347
2023-05-14T05:24:57.845Z,56.2795
2023-05-14T05:25:59.549Z,56.0156
2023-05-14T05:27:01.249Z,55.7830
2023-05-14T05:28:02.839Z,55.4437
2023-05-14T05:29:04.465Z,55.4117
2023-05-14T05:30:06.233Z,56.1372
2023-05-14T05:31:07.857Z,55.7098
2023-05-14T05:32:09.436Z,55.2756
2023-05-14T05:33:11.266Z,55.2268
2023-05-14T05:34:12.726Z,55.1200
2023-05-14T05:35:14.501Z,55.5846
2023-05-14T05:36:16.077Z,55.8258
2023-05-14T05:37:17.784Z,55.4752
2023-05-14T05:38:19.424Z,55.3524
2023-05-14T05:39:21.067Z,55.1473
2023-05-14T05:40:22.770Z,55.2437
2023-05-14T05:41:24.316Z,55.7975
2023-05-14T05:42:25.913Z,56.2776
2023-05-14T05:43:27.582Z,55.8928
2023-05-14T05:44:29.263Z,55.5488
2023-05-14T05:45:30.867Z,55.1926
2023-05-14T05:46:32.603Z,55.5764
2023-05-14T05:47:34.143Z,56.1420
2023-05-14T05:48:35.763Z,55.8535
2023-05-14T05:49:37.455Z,55.4162
2023-05-14T05:50:39.078Z,55.1603
2023-05-14T05:51:40.714Z,55.3804
2023-05-14T05:52:42.314Z,55.9894
2023-05-14T05:53:44.903Z,56.6641
2023-05-14T05:54:45.671Z,55.9634
2023-05-14T05:55:47.317Z,55.5320
2023-05-14T05:56:48.888Z,55.4290
2023-05-14T05:57:50.602Z,55.5942
2023-05-14T05:58:52.949Z,56.3944
2023-05-14T05:59:54.911Z,56.0410
2023-05-14T06:00:55.468Z,55.8831
2023-05-14T06:01:57.194Z,55.5839
2023-05-14T06:02:58.822Z,55.5074
2023-05-14T06:04:00.512Z,56.0160
2023-05-14T06:05:02.214Z,56.6066
2023-05-14T06:06:03.734Z,56.4245
2023-05-14T06:07:05.651Z,55.9866
2023-05-14T06:08:07.028Z,55.9510
2023-05-14T06:09:08.686Z,55.8994
2023-05-14T06:10:10.358Z,56.4506
2023-05-14T06:11:11.894Z,56.8186
2023-05-14T06:12:13.624Z,56.6326
2023-05-14T06:13:15.229Z,56.1187
2023-05-14T06:14:16.937Z,55.8854
2023-05-14T06:15:18.917Z,56.0049
2023-05-14T06:16:20.199Z,56.4337
2023-05-14T06:17:21.811Z,56.6314
2023-05-14T06:18:23.485Z,56.1860
2023-05-14T06:19:25.145Z,55.7888
2023-05-14T06:20:26.906Z,55.5017
2023-05-14T06:21:28.408Z,55.7540
2023-05-14T06:22:30.041Z,56.6976
2023-05-14T06:23:31.641Z,56.4951
2023-05-14T06:24:33.448Z,56.0530
2023-05-14T06:25:34.976Z,55.4907
2023-05-14T06:26:36.632Z,55.5678
2023-05-14T06:27:38.246Z,55.8557
2023-05-14T06:28:39.992Z,56.6983
2023-05-14T06:29:41.563Z,56.8296
2023-05-14T06:30:43.283Z,55.9721
2023-05-14T06:31:44.898Z,55.4993
2023-05-14T06:32:46.593Z,55.5244
2023-05-14T06:33:48.112Z,56.0378
2023-05-14T06:34:49.883Z,56.6407
2023-05-14T06:35:51.446Z,56.6073
2023-05-14T06:36:53.103Z,56.1229
2023-05-14T06:37:54.803Z,55.6598
2023-05-14T06:38:56.368Z,55.8136
2023-05-14T06:39:58.172Z,56.2124
2023-05-14T06:40:59.707Z,56.9687
2023-05-14T06:42:01.367Z,56.7638
2023-05-14T06:43:02.987Z,56.1959
2023-05-14T06:44:04.603Z,55.8820
2023-05-14T06:45:06.256Z,55.8480
2023-05-14T06:46:08.426Z,56.7007
2023-05-14T06:47:09.615Z,57.2453
2023-05-14T06:48:11.235Z,56.9952
2023-05-14T06:49:12.852Z,56.4262
2023-05-14T06:50:14.561Z,56.1779
2023-05-14T06:51:16.901Z,56.3829
2023-05-14T06:52:17.766Z,57.0009
2023-05-14T06:53:19.419Z,56.9749
2023-05-14T06:54:21.068Z,57.0067
2023-05-14T06:55:22.700Z,57.3997
2023-05-14T06:56:24.405Z,57.0378
2023-05-14T06:57:25.943Z,56.6216
2023-05-14T06:58:27.627Z,56.5830
2023-05-14T06:59:29.216Z,57.2294
2023-05-14T07:00:30.980Z,57.4871
2023-05-14T07:01:32.532Z,57.0506
2023-05-14T07:02:34.158Z,56.8120
2023-05-14T07:03:36.301Z,56.6231
2023-05-14T07:04:37.469Z,56.6838
2023-05-14T07:05:39.048Z,57.5621
2023-05-14T07:06:40.801Z,57.4842
2023-05-14T07:07:42.356Z,56.8158
2023-05-14T07:08:44.051Z,56.3452
2023-05-14T07:09:45.630Z,56.3169
2023-05-14T07:10:47.385Z,57.1471
2023-05-14T07:11:49.480Z,57.7126
2023-05-14T07:12:50.616Z,57.4449
2023-05-14T07:13:52.266Z,56.8416
2023-05-14T07:14:53.933Z,56.5446
2023-05-14T07:15:55.533Z,56.4992
2023-05-14T07:16:57.245Z,57.4104
2023-05-14T07:17:58.859Z,57.7583
2023-05-14T07:19:00.558Z,57.4836
2023-05-14T07:20:02.134Z,56.8523
2023-05-14T07:21:03.801Z,56.5173
2023-05-14T07:22:05.414Z,56.7579
2023-05-14T07:23:07.050Z,57.6443
2023-05-14T07:24:08.716Z,57.9544
2023-05-14T07:25:10.344Z,57.5644
2023-05-14T07:26:12.015Z,57.1713
2023-05-14T07:27:13.615Z,56.9133
2023-05-14T07:28:15.254Z,57.1741
2023-05-14T07:29:16.983Z,58.1152
2023-05-14T07:30:18.533Z,58.4598
2023-05-14T07:31:20.309Z,57.7330
2023-05-14T07:32:21.852Z,57.1862
2023-05-14T07:33:23.509Z,56.9294
2023-05-14T07:34:25.148Z,57.3058
2023-05-14T07:35:26.747Z,58.2509
2023-05-14T07:36:28.426Z,58.1011
2023-05-14T07:37:30.109Z,57.4990
2023-05-14T07:38:31.720Z,57.1658
2023-05-14T07:39:33.345Z,56.9271
2023-05-14T07:40:34.980Z,57.4661
2023-05-14T07:41:37.333Z,57.8888
2023-05-14T07:42:38.263Z,57.6965
2023-05-14T07:43:39.949Z,57.4574
2023-05-14T07:44:41.616Z,57.2457
2023-05-14T07:45:43.214Z,57.3027
2023-05-14T07:46:44.928Z,57.6849
2023-05-14T07:47:46.534Z,57.7832
2023-05-14T07:48:48.126Z,58.1759
2023-05-14T07:49:49.778Z,58.2845
2023-05-14T07:50:51.444Z,58.3484
2023-05-14T07:51:53.843Z,58.2372
2023-05-14T07:52:54.813Z,58.0441
2023-05-14T07:53:56.512Z,57.8286
2023-05-14T07:54:58.279Z,57.4517
2023-05-14T07:55:59.770Z,57.7379
2023-05-14T07:57:01.511Z,57.7450
2023-05-14T07:58:03.574Z,57.8091
2023-05-14T07:59:04.751Z,58.2876
2023-05-14T08:00:06.545Z,58.2245
2023-05-14T08:01:09.078Z,57.9381
2023-05-14T08:02:09.711Z,58.1509
2023-05-14T08:03:11.452Z,57.7644
2023-05-14T08:04:13.159Z,57.7159
2023-05-14T08:05:14.608Z,58.7060
2023-05-14T08:06:16.273Z,58.9463
2023-05-14T08:07:17.906Z,58.9087
2023-05-14T08:08:19.516Z,58.3233
2023-05-14T08:09:21.210Z,57.9745
2023-05-14T08:10:24.025Z,58.2847
2023-05-14T08:11:24.420Z,58.8559
2023-05-14T08:12:27.094Z,59.2111
2023-05-14T08:13:27.722Z,59.5414
2023-05-14T08:14:29.632Z,59.8051
2023-05-14T08:15:31.023Z,60.0606
2023-05-14T08:16:32.785Z,60.2530
2023-05-14T08:17:34.363Z,60.8607
2023-05-14T08:18:36.040Z,61.6220
2023-05-14T08:19:38.561Z,61.6650
2023-05-14T08:20:39.294Z,61.2050
2023-05-14T08:21:41.052Z,61.2354
2023-05-14T08:22:42.685Z,61.2949
2023-05-14T08:23:44.552Z,61.5588
2023-05-14T08:24:45.926Z,61.8188
2023-05-14T08:25:47.519Z,61.6194
2023-05-14T08:26:49.264Z,61.6277
2023-05-14T08:27:50.823Z,61.1045
2023-05-14T08:28:52.488Z,61.2640
2023-05-14T08:29:54.056Z,61.8396
2023-05-14T08:30:55.759Z,62.1471
2023-05-14T08:31:57.610Z,61.9063
2023-05-14T08:32:59.716Z,61.6351
2023-05-14T08:34:00.687Z,61.1559
2023-05-14T08:35:02.278Z,61.4851
2023-05-14T08:36:03.996Z,62.1717
2023-05-14T08:37:05.640Z,62.0078
2023-05-14T08:38:08.266Z,62.3214
2023-05-14T08:39:09.029Z,61.6658
2023-05-14T08:40:10.523Z,61.7911
2023-05-14T08:41:12.317Z,62.3907
2023-05-14T08:42:13.858Z,62.9281
2023-05-14T08:43:15.580Z,62.8828
2023-05-14T08:44:17.155Z,63.2509
2023-05-14T08:45:18.864Z,61.8327
2023-05-14T08:46:20.422Z,61.8188
2023-05-14T08:47:22.123Z,62.1048
2023-05-14T08:48:23.774Z,62.5688
2023-05-14T08:49:25.366Z,62.7197
2023-05-14T08:50:27.455Z,62.3715
2023-05-14T08:51:28.636Z,61.3318
2023-05-14T08:52:30.283Z,61.4700
2023-05-14T08:53:31.953Z,62.2455
2023-05-14T08:54:33.619Z,62.7431
2023-05-14T08:55:35.213Z,62.4741
2023-05-14T08:56:36.830Z,61.6052
2023-05-14T08:57:38.542Z,61.1240
2023-05-14T08:58:40.200Z,61.6125
2023-05-14T08:59:41.894Z,62.7541
2023-05-14T09:00:43.459Z,63.2688
2023-05-14T09:01:45.146Z,62.3189
2023-05-14T09:02:46.805Z,61.3687
2023-05-14T09:03:48.351Z,61.4274
2023-05-14T09:04:49.979Z,62.2044
2023-05-14T09:05:51.807Z,63.0465
2023-05-14T09:06:53.305Z,63.7341
2023-05-14T09:07:55.009Z,63.1528
2023-05-14T09:08:56.586Z,61.7619
2023-05-14T09:09:58.322Z,62.1077
2023-05-14T09:11:00.868Z,63.0377
2023-05-14T09:12:01.583Z,63.3707
2023-05-14T09:13:03.215Z,64.2643
2023-05-14T09:14:04.775Z,63.2559
2023-05-14T09:15:07.250Z,62.1175
2023-05-14T09:16:08.156Z,62.5370
2023-05-14T09:17:09.828Z,63.2131
2023-05-14T09:18:11.372Z,63.6266
2023-05-14T09:19:13.193Z,63.8724
2023-05-14T09:20:14.693Z,62.9913
2023-05-14T09:21:16.491Z,62.0722
2023-05-14T09:22:17.985Z,62.7002
2023-05-14T09:23:19.710Z,63.7315
2023-05-14T09:24:21.381Z,64.1368
2023-05-14T09:25:24.034Z,63.6014
2023-05-14T09:26:24.520Z,63.4625
2023-05-14T09:27:27.244Z,62.6578
2023-05-14T09:28:27.844Z,63.6395
2023-05-14T09:29:29.494Z,65.0112
2023-05-14T09:30:32.522Z,65.7565
2023-05-14T09:31:32.746Z,64.5423
2023-05-14T09:32:35.552Z,64.0505
2023-05-14T09:33:36.116Z,63.3496
2023-05-14T09:34:38.108Z,64.0949
2023-05-14T09:35:39.531Z,64.7480
2023-05-14T09:36:41.165Z,65.4577
2023-05-14T09:37:42.800Z,64.3656
2023-05-14T09:38:44.441Z,63.5040
2023-05-14T09:39:45.982Z,63.2810
2023-05-14T09:40:47.750Z,64.2218
2023-05-14T09:41:49.327Z,65.2496
2023-05-14T09:42:50.982Z,65.8288
2023-05-14T09:43:52.634Z,64.3873
2023-05-14T09:44:54.261Z,63.7810
2023-05-14T09:45:55.960Z,63.2477
2023-05-14T09:46:57.614Z,64.0040
2023-05-14T09:48:00.329Z,64.6288
2023-05-14T09:49:00.806Z,65.2671
2023-05-14T09:50:03.425Z,64.1726
2023-05-14T09:51:04.738Z,63.6412
2023-05-14T09:52:05.728Z,62.8931
2023-05-14T09:53:07.472Z,63.3746
2023-05-14T09:54:09.105Z,63.7694
2023-05-14T09:55:10.675Z,64.2747
2023-05-14T09:56:12.485Z,63.2960
2023-05-14T09:57:14.055Z,62.7359
2023-05-14T09:58:15.667Z,62.2672
2023-05-14T09:59:17.593Z,63.1004
2023-05-14T10:00:18.986Z,63.5665
2023-05-14T10:01:21.704Z,64.1068
2023-05-14T10:02:22.328Z,63.2843
2023-05-14T10:03:23.929Z,62.4205
2023-05-14T10:04:25.511Z,62.3596
2023-05-14T10:05:27.209Z,63.0044
2023-05-14T10:06:28.820Z,63.4477
2023-05-14T10:07:30.449Z,63.9787
2023-05-14T10:08:32.639Z,62.6629
2023-05-14T10:09:33.784Z,61.6629
2023-05-14T10:10:35.385Z,61.6707
2023-05-14T10:11:38.101Z,62.4480
2023-05-14T10:12:38.689Z,63.3220
2023-05-14T10:13:40.282Z,63.3836
2023-05-14T10:14:42.026Z,62.0095
2023-05-14T10:15:43.612Z,60.7943
2023-05-14T10:16:45.274Z,60.7728
2023-05-14T10:17:47.085Z,61.8733
2023-05-14T10:18:48.661Z,62.9994
2023-05-14T10:19:50.223Z,63.0155
2023-05-14T10:20:51.799Z,62.5371
2023-05-14T10:21:53.521Z,61.3628
2023-05-14T10:22:55.138Z,61.6569
2023-05-14T10:23:56.973Z,63.3121
2023-05-14T10:24:58.540Z,64.1764
2023-05-14T10:26:00.201Z,63.6892
2023-05-14T10:27:01.774Z,62.7806
2023-05-14T10:28:03.385Z,61.8256
2023-05-14T10:29:05.026Z,62.1789
2023-05-14T10:30:06.656Z,62.7494
2023-05-14T10:31:08.264Z,63.4936
2023-05-14T10:32:10.062Z,63.3531
2023-05-14T10:33:12.619Z,62.8068
2023-05-14T10:34:13.193Z,61.6164
2023-05-14T10:35:15.863Z,61.8477
2023-05-14T10:36:16.484Z,62.9240
2023-05-14T10:37:18.134Z,63.6959
2023-05-14T10:38:19.712Z,63.1092
2023-05-14T10:39:21.444Z,62.6695
2023-05-14T10:40:23.133Z,61.5695
2023-05-14T10:41:24.762Z,62.1811
2023-05-14T10:42:26.315Z,63.2093
2023-05-14T10:43:28.000Z,63.8342
2023-05-14T10:44:29.632Z,63.3109
2023-05-14T10:45:31.334Z,62.2400
2023-05-14T10:46:32.936Z,61.3462
2023-05-14T10:47:34.605Z,62.1694
2023-05-14T10:48:36.196Z,63.3471
2023-05-14T10:49:43.349Z,63.6067
2023-05-14T10:50:39.516Z,62.7653
2023-05-14T10:51:41.253Z,61.8408
2023-05-14T10:52:42.780Z,61.6925
2023-05-14T10:53:44.494Z,62.7110
2023-05-14T10:54:46.080Z,63.4329
2023-05-14T10:55:47.732Z,63.4092
2023-05-14T10:56:49.407Z,62.4998
2023-05-14T10:57:51.017Z,61.4443
2023-05-14T10:58:52.664Z,61.4314
2023-05-14T10:59:55.171Z,62.5644
2023-05-14T11:00:56.025Z,63.2004
2023-05-14T11:01:57.749Z,62.7824
2023-05-14T11:02:59.368Z,62.4100
2023-05-14T11:04:01.017Z,61.0668
2023-05-14T11:05:04.440Z,61.3919
2023-05-14T11:06:04.235Z,62.2824
2023-05-14T11:07:05.905Z,62.9757
2023-05-14T11:08:07.574Z,63.3436
2023-05-14T11:09:09.131Z,62.5367
2023-05-14T11:10:10.859Z,61.5329
2023-05-14T11:11:12.508Z,62.1473
2023-05-14T11:12:14.065Z,63.4739
2023-05-14T11:13:15.681Z,64.4299
2023-05-14T11:14:17.434Z,64.5925
2023-05-14T11:15:19.029Z,63.5155
2023-05-14T11:16:23.760Z,62.4995
2023-05-14T11:17:22.302Z,62.7871
2023-05-14T11:18:23.958Z,63.9039
2023-05-14T11:19:25.627Z,64.9026
2023-05-14T11:20:27.346Z,65.3810
2023-05-14T11:21:29.007Z,64.2039
2023-05-14T11:22:30.552Z,63.2062
2023-05-14T11:23:32.168Z,63.2236
2023-05-14T11:24:33.832Z,64.1532
2023-05-14T11:25:35.547Z,65.5134
2023-05-14T11:26:38.122Z,66.0302
2023-05-14T11:27:38.762Z,64.1665
2023-05-14T11:28:40.562Z,63.0754
2023-05-14T11:29:42.090Z,63.1479
2023-05-14T11:30:43.712Z,63.9688
2023-05-14T11:31:45.475Z,65.1328
2023-05-14T11:32:47.001Z,65.6485
2023-05-14T11:33:48.641Z,64.5581
2023-05-14T11:34:50.573Z,62.9481
2023-05-14T11:35:51.964Z,62.7270
2023-05-14T11:36:53.547Z,63.3415
2023-05-14T11:37:55.204Z,64.1147
2023-05-14T11:38:56.824Z,64.8186
2023-05-14T11:39:58.558Z,64.6880
2023-05-14T11:41:00.160Z,63.0866
2023-05-14T11:42:01.739Z,62.5473
2023-05-14T11:43:03.425Z,62.7397
2023-05-14T11:44:05.964Z,63.5627
2023-05-14T11:45:06.762Z,63.3783
2023-05-14T11:46:08.436Z,63.5855
2023-05-14T11:47:10.059Z,62.6487
2023-05-14T11:48:11.649Z,61.9474
2023-05-14T11:49:13.308Z,62.4553
2023-05-14T11:50:14.906Z,63.0224
2023-05-14T11:51:16.717Z,63.0049
2023-05-14T11:52:18.209Z,63.7124
2023-05-14T11:53:19.873Z,62.2892
2023-05-14T11:54:21.593Z,61.9313
2023-05-14T11:55:23.207Z,62.6404
2023-05-14T11:56:24.820Z,63.5215
2023-05-14T11:57:26.503Z,64.1909
2023-05-14T11:58:28.048Z,63.9192
2023-05-14T11:59:29.663Z,62.2433
2023-05-14T12:00:31.317Z,61.7574
2023-05-14T12:01:33.016Z,62.7552
2023-05-14T12:02:34.712Z,64.0814
2023-05-14T12:03:36.386Z,65.5203
2023-05-14T12:04:37.939Z,65.1435
2023-05-14T12:05:40.039Z,64.1149
2023-05-14T12:06:41.189Z,63.8916
2023-05-14T12:07:42.820Z,64.4336
2023-05-14T12:08:45.483Z,65.2456
2023-05-14T12:09:46.077Z,66.5507
2023-05-14T12:10:47.753Z,66.0804
2023-05-14T12:11:49.412Z,64.7103
2023-05-14T12:12:51.064Z,63.7976
2023-05-14T12:13:52.643Z,64.2345
2023-05-14T12:14:54.307Z,64.9051
2023-05-14T12:15:56.015Z,66.1152
2023-05-14T12:16:57.653Z,66.3168
2023-05-14T12:17:59.276Z,64.9851
2023-05-14T12:19:01.560Z,63.4553
2023-05-14T12:20:02.545Z,63.5811
2023-05-14T12:21:04.230Z,64.1492
2023-05-14T12:22:06.045Z,64.9408
2023-05-14T12:23:07.658Z,65.3161
2023-05-14T12:24:09.229Z,64.1504
2023-05-14T12:25:10.924Z,62.7715